Time;durP1;ratioP1;P1;durP2;ratioP2;P2;SDS_P1;SDS_P2;PMS_P1;PMS_P2;Temp;Humidity;BMP_temperature;BMP_pressure;BME280_temperature;BME280_humidity;BME280_pressure;Samples;Min_cycle;Max_cycle;Signal;HPM_P1;HPM_P2
2024/03/29 01:45:42;;;;;;;1.67;1.57;;;;;;;14.30;36.44;96948.44;6921518;28;20212;-81
2024/03/29 01:49:05;;;;;;;1.67;1.47;;;;;;;14.18;36.70;96943.28;6922047;28;20227;-82
2024/03/29 01:52:28;;;;;;;1.70;1.60;;;;;;;13.65;37.48;96935.72;6922755;28;20321;-81
2024/03/29 01:55:52;;;;;;;2.13;1.73;;;;;;;13.68;37.11;96950.59;6925079;28;20213;-81
2024/03/29 01:59:15;;;;;;;1.80;1.70;;;;;;;14.03;36.85;96953.28;6923021;28;20267;-82
2024/03/29 02:02:37;;;;;;;1.57;1.43;;;;;;;14.24;36.48;96941.41;6920097;28;20228;-82
2024/03/29 02:05:59;;;;;;;1.60;1.50;;;;;;;14.05;36.80;96945.72;6917325;28;20438;-82
2024/03/29 02:09:21;;;;;;;2.20;1.83;;;;;;;14.14;36.44;96952.22;6897683;28;20230;-82
2024/03/29 02:12:43;;;;;;;1.40;1.40;;;;;;;14.17;36.14;96946.25;6901393;28;20606;-82
2024/03/29 02:16:05;;;;;;;2.93;1.30;;;;;;;14.18;36.37;96939.75;6917551;28;20213;-82
2024/03/29 02:19:27;;;;;;;1.70;1.60;;;;;;;14.03;36.88;96943.28;6916049;28;20304;-81
2024/03/29 02:22:54;;;;;;;1.93;1.83;;;;;;;14.12;36.57;96951.69;6917771;28;20326;-81
2024/03/29 02:26:17;;;;;;;1.70;1.60;;;;;;;14.03;36.71;96953.28;6917113;28;20253;-82
2024/03/29 02:29:39;;;;;;;1.40;1.30;;;;;;;14.08;36.68;96916.19;6917175;28;20238;-81
2024/03/29 02:33:01;;;;;;;1.47;1.47;;;;;;;14.15;36.84;96918.63;6917739;28;20802;-82
2024/03/29 02:36:22;;;;;;;1.87;1.50;;;;;;;14.11;36.75;96931.09;6916808;28;20296;-82
2024/03/29 02:39:44;;;;;;;1.53;1.40;;;;;;;14.09;36.71;96933.28;6911893;28;20694;-82
2024/03/29 02:43:07;;;;;;;1.40;1.40;;;;;;;14.25;36.50;96943.03;6890456;28;20225;-82
2024/03/29 02:46:29;;;;;;;1.67;1.57;;;;;;;14.24;36.39;96927.84;6889213;28;20307;-81
2024/03/29 02:49:50;;;;;;;3.23;1.53;;;;;;;14.45;36.02;96907.75;6891027;28;20269;-82
2024/03/29 02:53:12;;;;;;;1.50;1.50;;;;;;;14.41;35.71;96902.06;6889954;28;20678;-82
2024/03/29 02:56:33;;;;;;;2.70;1.60;;;;;;;14.30;35.80;96894.22;6890967;28;20218;-82
2024/03/29 02:59:56;;;;;;;1.50;1.40;;;;;;;14.37;36.04;96902.88;6889775;28;20372;-81
2024/03/29 03:03:17;;;;;;;1.60;1.50;;;;;;;14.60;35.64;96926.69;6914490;28;20313;-82
2024/03/29 03:06:38;;;;;;;1.20;1.20;;;;;;;14.77;35.25;96928.00;6915899;28;20773;-82
2024/03/29 03:13:38;;;;;;;2.23;1.43;;;;;;;14.77;35.77;96933.41;6916364;28;20280;-82
2024/03/29 03:17:01;;;;;;;1.53;1.47;;;;;;;14.53;35.79;96934.31;6916062;28;20703;-82
2024/03/29 03:20:22;;;;;;;1.37;1.37;;;;;;;14.61;35.65;96939.16;6916365;28;20292;-81
2024/03/29 03:23:44;;;;;;;1.57;1.50;;;;;;;14.12;35.94;96932.72;6916138;28;20231;-81
2024/03/29 03:27:04;;;;;;;1.30;1.30;;;;;;;14.30;35.63;96937.59;6914995;28;20339;-82
2024/03/29 03:30:26;;;;;;;1.60;1.50;;;;;;;14.53;34.99;96923.44;6915858;28;20558;-81
2024/03/29 03:33:48;;;;;;;2.00;1.30;;;;;;;14.54;34.53;96938.63;6916270;28;20370;-82
2024/03/29 03:37:09;;;;;;;1.43;1.40;;;;;;;14.85;34.09;96937.44;6915387;28;20218;-81
2024/03/29 03:40:30;;;;;;;1.77;1.50;;;;;;;14.76;34.08;96947.25;6915747;28;20209;-82
2024/03/29 03:43:52;;;;;;;1.50;1.40;;;;;;;15.06;33.58;96958.81;6916008;28;20374;-82
2024/03/29 03:47:12;;;;;;;1.60;1.30;;;;;;;15.14;34.26;96960.94;6914703;28;20204;-82
2024/03/29 03:50:35;;;;;;;1.30;1.30;;;;;;;14.89;34.64;96977.31;6913606;28;20213;-82
2024/03/29 03:53:57;;;;;;;1.20;1.20;;;;;;;14.45;36.10;96968.19;6915454;28;20741;-81
2024/03/29 03:57:17;;;;;;;1.60;1.50;;;;;;;14.51;35.33;96961.69;6914700;28;20297;-81
2024/03/29 04:00:39;;;;;;;1.73;1.63;;;;;;;14.21;36.83;97017.84;6916988;28;20262;-82
2024/03/29 04:04:00;;;;;;;1.30;1.30;;;;;;;13.34;37.66;96998.16;6916632;28;20265;-82
2024/03/29 04:07:24;;;;;;;1.87;1.30;;;;;;;13.29;35.84;96965.69;6917248;28;20292;-82
2024/03/29 04:10:45;;;;;;;1.50;1.40;;;;;;;13.37;35.71;96948.91;6917767;28;20685;-82
2024/03/29 04:14:05;;;;;;;1.40;1.40;;;;;;;14.19;34.86;96974.75;6917409;28;20349;-82
2024/03/29 04:17:27;;;;;;;1.40;1.40;;;;;;;14.67;34.20;96940.75;6916659;28;20235;-82
2024/03/29 04:20:56;;;;;;;1.20;1.20;;;;;;;14.78;33.39;96917.94;6918108;28;20350;-82
2024/03/29 04:24:19;;;;;;;1.57;1.50;;;;;;;13.85;37.05;96924.03;6914303;28;20223;-82
2024/03/29 04:27:40;;;;;;;1.60;1.50;;;;;;;14.22;35.57;96909.16;6916148;28;20212;-82
2024/03/29 04:31:02;;;;;;;1.60;1.50;;;;;;;14.40;36.43;96892.28;6917579;28;20683;-82
2024/03/29 04:34:22;;;;;;;1.37;1.37;;;;;;;14.66;37.58;96906.59;6916973;28;20237;-81
2024/03/29 04:37:44;;;;;;;1.50;1.50;;;;;;;14.61;38.08;96918.28;6916372;28;20236;-81
2024/03/29 04:41:07;;;;;;;1.50;1.40;;;;;;;14.33;37.70;96927.00;6916885;28;20206;-81
2024/03/29 04:44:29;;;;;;;1.97;1.87;;;;;;;14.44;36.69;96953.03;6917703;28;20755;-81
2024/03/29 04:47:50;;;;;;;1.40;1.40;;;;;;;13.81;35.71;96923.78;6917799;28;20630;-82
2024/03/29 04:51:12;;;;;;;2.87;1.73;;;;;;;14.56;36.41;96952.72;6917273;28;20299;-81
2024/03/29 04:54:34;;;;;;;1.63;1.60;;;;;;;13.86;38.67;96998.84;6917013;28;20237;-82
2024/03/29 04:57:57;;;;;;;2.47;1.70;;;;;;;13.55;38.56;96995.25;6916937;28;20310;-81
2024/03/29 05:01:19;;;;;;;1.87;1.77;;;;;;;12.64;39.78;96965.38;6917748;28;20391;-82
2024/03/29 05:04:40;;;;;;;1.50;1.40;;;;;;;13.19;36.36;96939.41;6917995;28;20315;-82
2024/03/29 05:08:02;;;;;;;2.37;1.53;;;;;;;12.71;36.81;96930.81;6917804;28;20238;-81
2024/03/29 05:11:23;;;;;;;1.50;1.40;;;;;;;12.88;36.49;96893.56;6918560;28;20357;-81
2024/03/29 05:14:48;;;;;;;1.60;1.50;;;;;;;13.91;34.89;96883.16;6918039;28;20235;-81
2024/03/29 05:18:09;;;;;;;1.53;1.53;;;;;;;14.86;34.36;96892.97;6917565;28;20228;-82
2024/03/29 05:21:31;;;;;;;1.57;1.47;;;;;;;14.52;32.63;96905.56;6918158;28;20750;-81
2024/03/29 05:24:54;;;;;;;1.43;1.33;;;;;;;14.62;33.41;96905.53;6918733;28;20264;-82
2024/03/29 05:28:16;;;;;;;2.50;1.90;;;;;;;14.86;33.51;96901.09;6898540;28;20224;-81
2024/03/29 05:31:39;;;;;;;2.20;1.40;;;;;;;14.69;33.72;96893.28;6893073;28;20195;-83
2024/03/29 05:35:00;;;;;;;1.70;1.60;;;;;;;14.44;33.33;96900.69;6893914;28;20250;-83
2024/03/29 05:38:22;;;;;;;1.43;1.43;;;;;;;14.74;33.46;96922.31;6897878;28;20704;-81
2024/03/29 05:41:43;;;;;;;1.50;1.40;;;;;;;14.80;32.55;96922.00;6896754;28;20212;-81
2024/03/29 05:45:06;;;;;;;2.10;1.40;;;;;;;14.46;33.38;96912.88;6918339;28;20751;-80
2024/03/29 05:48:30;;;;;;;1.43;1.40;;;;;;;14.39;33.31;96912.38;6903851;28;20221;-81
2024/03/29 05:51:51;;;;;;;1.40;1.40;;;;;;;14.69;33.27;96900.63;6910980;28;20241;-83
2024/03/29 05:55:13;;;;;;;1.60;1.50;;;;;;;15.42;31.86;96916.03;6897178;28;20227;-81
2024/03/29 05:58:35;;;;;;;1.30;1.20;;;;;;;15.62;33.55;96922.13;6912031;28;20718;-83
2024/03/29 06:01:56;;;;;;;1.27;1.27;;;;;;;15.48;33.11;96929.28;6913213;28;20232;-80
2024/03/29 06:05:19;;;;;;;1.60;1.50;;;;;;;14.58;35.12;96934.28;6918917;28;20228;-81
2024/03/29 06:08:40;;;;;;;1.70;1.60;;;;;;;14.74;33.83;96920.41;6920486;28;20226;-81
2024/03/29 06:12:05;;;;;;;3.27;1.60;;;;;;;15.64;34.79;96951.75;6909247;28;20344;-80
2024/03/29 06:19:05;;;;;;;2.00;1.33;;;;;;;15.37;35.51;96937.78;6892789;28;20223;-80
2024/03/29 06:22:30;;;;;;;1.60;1.50;;;;;;;14.93;33.80;96934.97;6893682;28;20210;-84
2024/03/29 06:25:51;;;;;;;1.20;1.20;;;;;;;14.75;33.44;96918.50;6909982;28;20267;-83
2024/03/29 06:29:13;;;;;;;1.30;1.30;;;;;;;15.63;33.09;96928.38;6899712;28;20310;-82
2024/03/29 06:32:34;;;;;;;1.40;1.40;;;;;;;16.14;31.93;96938.56;6920761;28;20220;-84
2024/03/29 06:35:56;;;;;;;1.60;1.50;;;;;;;15.66;32.62;96941.38;6902981;28;20285;-81
2024/03/29 06:39:20;;;;;;;3.30;1.70;;;;;;;15.32;33.37;96938.63;6914041;28;20284;-81
2024/03/29 06:42:41;;;;;;;1.80;1.70;;;;;;;15.68;33.19;96933.78;6899731;28;20208;-82
2024/03/29 06:46:03;;;;;;;2.13;1.60;;;;;;;15.22;34.26;96929.69;6907847;28;20234;-81
2024/03/29 06:49:25;;;;;;;1.40;1.40;;;;;;;15.87;34.00;96916.50;6919308;28;20228;-81
2024/03/29 06:52:46;;;;;;;1.70;1.60;;;;;;;15.71;34.00;96930.50;6895519;28;20274;-83
2024/03/29 06:56:09;;;;;;;1.50;1.40;;;;;;;15.66;33.92;96925.91;6893915;28;20200;-83
2024/03/29 06:59:30;;;;;;;1.40;1.30;;;;;;;15.62;33.31;96886.81;6902578;28;20313;-83
2024/03/29 07:02:52;;;;;;;1.73;1.40;;;;;;;15.73;32.86;96901.94;6916376;28;20678;-83
2024/03/29 07:06:14;;;;;;;4.37;3.47;;;;;;;15.73;32.54;96909.28;6905984;28;20312;-82
2024/03/29 07:09:35;;;;;;;1.70;1.60;;;;;;;15.18;33.55;96912.34;6903106;28;20223;-80
2024/03/29 07:12:58;;;;;;;2.33;1.60;;;;;;;16.15;32.05;96895.91;6913376;28;20241;-82
2024/03/29 07:16:19;;;;;;;1.13;1.10;;;;;;;16.25;32.49;96896.59;6917275;28;20643;-82
2024/03/29 07:19:41;;;;;;;1.37;1.30;;;;;;;16.53;31.73;96881.38;6918810;28;20328;-81
2024/03/29 07:23:02;;;;;;;1.30;1.20;;;;;;;15.80;32.90;96901.63;6906328;28;20202;-81
2024/03/29 07:26:24;;;;;;;1.40;1.40;;;;;;;15.90;32.50;96899.63;6893802;28;20915;-81
2024/03/29 07:29:47;;;;;;;1.50;1.27;;;;;;;16.11;32.31;96917.38;6888046;28;20604;-82
2024/03/29 07:33:09;;;;;;;1.20;1.20;;;;;;;16.20;32.78;96928.44;6888835;28;20335;-80
2024/03/29 07:36:35;;;;;;;1.50;1.40;;;;;;;15.76;33.94;96901.38;6912913;28;20246;-82
2024/03/29 07:39:56;;;;;;;1.53;1.43;;;;;;;15.61;34.33;96933.28;6911840;28;20224;-81
2024/03/29 07:43:18;;;;;;;2.13;1.93;;;;;;;15.20;37.25;96943.53;6904270;28;20208;-81
2024/03/29 07:46:41;;;;;;;3.33;1.90;;;;;;;15.79;38.49;96933.41;6914137;28;20234;-82
2024/03/29 07:50:03;;;;;;;2.03;1.50;;;;;;;15.79;41.14;96963.31;6916485;28;20712;-81
2024/03/29 07:53:25;;;;;;;2.67;2.40;;;;;;;15.18;42.25;96970.16;6916305;28;20258;-81
2024/03/29 07:56:46;;;;;;;2.40;2.20;;;;;;;15.29;44.98;96985.28;6916211;28;20203;-80
2024/03/29 08:00:10;;;;;;;2.20;2.00;;;;;;;15.04;47.05;97033.47;6914671;28;20230;-81
2024/03/29 08:03:34;;;;;;;1.90;1.80;;;;;;;14.90;48.28;97041.34;6915989;28;20206;-80
2024/03/29 08:06:55;;;;;;;3.10;2.00;;;;;;;15.33;48.21;97037.19;6914092;28;20225;-80
2024/03/29 08:10:17;;;;;;;3.03;2.50;;;;;;;15.35;48.86;97045.84;6914891;28;20244;-81
2024/03/29 08:13:39;;;;;;;1.90;1.80;;;;;;;15.29;47.89;97041.50;6915031;28;20196;-80
2024/03/29 08:17:04;;;;;;;4.53;2.90;;;;;;;15.41;47.68;97055.59;6914560;28;20213;-81
2024/03/29 08:20:29;;;;;;;4.60;2.10;;;;;;;15.41;48.34;97061.03;6898602;28;20788;-82
2024/03/29 08:23:51;;;;;;;2.33;2.13;;;;;;;15.41;49.75;97061.88;6888311;28;20214;-81
2024/03/29 08:27:12;;;;;;;4.50;2.83;;;;;;;15.12;52.06;97070.88;6887858;28;20593;-80
2024/03/29 08:30:35;;;;;;;2.93;2.13;;;;;;;14.72;52.77;97077.19;6894386;28;20255;-83
2024/03/29 08:33:57;;;;;;;3.20;2.53;;;;;;;15.00;52.83;97092.91;6902597;28;20222;-80
2024/03/29 08:37:20;;;;;;;8.70;7.80;;;;;;;14.99;54.07;97095.88;6912778;28;20308;-79
2024/03/29 08:40:43;;;;;;;5.07;4.07;;;;;;;14.62;54.48;97093.47;6914034;28;20241;-82
2024/03/29 08:44:05;;;;;;;2.40;2.30;;;;;;;13.90;56.60;97094.72;6916643;28;20201;-82
2024/03/29 08:47:27;;;;;;;2.47;2.27;;;;;;;13.88;55.50;97105.84;6915413;28;20278;-82
2024/03/29 08:50:48;;;;;;;3.70;3.03;;;;;;;15.02;53.26;97108.88;6914429;28;20220;-81
2024/03/29 08:54:11;;;;;;;4.80;2.80;;;;;;;15.40;54.02;97111.81;6915514;28;20302;-81
2024/03/29 08:57:33;;;;;;;3.67;2.70;;;;;;;14.98;56.11;97115.97;6915266;28;20295;-81
2024/03/29 09:00:56;;;;;;;3.90;3.03;;;;;;;14.25;57.39;97083.97;6914758;28;20665;-81
2024/03/29 09:04:17;;;;;;;3.97;3.23;;;;;;;15.45;55.38;97081.94;6916445;28;20218;-82
2024/03/29 09:07:40;;;;;;;2.63;2.10;;;;;;;15.75;54.73;97068.22;6913106;28;20374;-81
2024/03/29 09:11:04;;;;;;;2.70;1.60;;;;;;;15.16;52.43;97066.53;6916730;28;20586;-82
2024/03/29 09:14:25;;;;;;;2.00;1.80;;;;;;;15.86;51.90;97055.41;6915311;28;20348;-81
2024/03/29 09:17:47;;;;;;;1.70;1.60;;;;;;;15.93;51.37;97045.81;6914623;28;20707;-82
2024/03/29 09:21:11;;;;;;;2.57;2.00;;;;;;;16.63;50.89;97060.84;6913387;28;20245;-82
2024/03/29 09:24:34;;;;;;;2.13;2.03;;;;;;;16.30;53.01;97061.63;6917481;28;20241;-80
2024/03/29 09:27:57;;;;;;;1.93;1.83;;;;;;;16.64;52.10;97098.63;6919528;28;20237;-82
2024/03/29 09:31:18;;;;;;;2.40;2.20;;;;;;;16.61;52.16;97101.09;6919966;28;20213;-83
2024/03/29 09:34:40;;;;;;;2.13;2.03;;;;;;;16.62;52.44;97097.28;6920612;28;20287;-80
2024/03/29 09:38:03;;;;;;;2.30;2.10;;;;;;;16.55;53.11;97096.81;6919176;28;20233;-82
2024/03/29 09:41:27;;;;;;;2.47;2.07;;;;;;;16.43;53.77;97129.81;6919023;28;20252;-81
2024/03/29 09:44:51;;;;;;;3.17;2.87;;;;;;;16.55;54.09;97119.41;6927487;28;20226;-82
2024/03/29 09:48:13;;;;;;;3.23;2.93;;;;;;;15.85;55.76;97100.78;6921418;28;20324;-81
2024/03/29 09:51:35;;;;;;;3.23;2.80;;;;;;;15.47;57.62;97062.66;6920268;28;20311;-78
2024/03/29 09:54:57;;;;;;;3.50;2.60;;;;;;;16.33;54.91;97050.19;6919139;28;20560;-81
2024/03/29 09:58:18;;;;;;;3.17;2.87;;;;;;;16.48;54.92;97050.06;6915871;28;20231;-80
2024/03/29 10:01:41;;;;;;;3.50;3.10;;;;;;;16.39;54.00;97030.03;6918704;28;20315;-80
2024/03/29 10:05:06;;;;;;;2.87;2.60;;;;;;;16.59;54.40;96987.16;6918763;28;20726;-80
2024/03/29 10:08:29;;;;;;;3.53;2.60;;;;;;;16.34;56.17;97016.44;6917960;28;20251;-81
2024/03/29 10:11:51;;;;;;;2.60;2.40;;;;;;;16.69;55.63;97040.66;6917975;28;20268;-80
2024/03/29 10:15:14;;;;;;;2.50;1.83;;;;;;;16.89;53.42;97019.50;6917830;28;20252;-80
2024/03/29 10:18:37;;;;;;;8.47;7.70;;;;;;;16.62;55.02;97029.25;6917161;28;20236;-80
2024/03/29 10:22:06;;;;;;;2.70;2.50;;;;;;;15.93;56.52;97032.22;6918016;28;20305;-80
2024/03/29 10:25:28;;;;;;;3.13;2.47;;;;;;;15.72;56.89;97025.31;6918236;28;20700;-80
2024/03/29 10:28:51;;;;;;;5.53;2.90;;;;;;;16.15;55.23;97021.75;6917651;28;20241;-80
2024/03/29 10:32:12;;;;;;;2.63;2.43;;;;;;;16.75;54.15;97017.72;6917803;28;20211;-80
2024/03/29 10:35:35;;;;;;;2.27;2.00;;;;;;;17.39;50.62;97009.97;6917733;28;20239;-83
2024/03/29 10:38:57;;;;;;;2.13;1.90;;;;;;;17.66;50.89;97010.97;6917483;28;20321;-81
2024/03/29 10:42:20;;;;;;;1.63;1.53;;;;;;;17.72;51.04;97022.59;6913215;28;20743;-81
2024/03/29 10:45:41;;;;;;;3.13;2.13;;;;;;;17.62;52.67;97026.28;6906294;28;20255;-82
2024/03/29 10:49:04;;;;;;;2.97;2.77;;;;;;;17.68;52.04;97016.91;6917223;28;20711;-84
2024/03/29 10:52:27;;;;;;;19.57;8.30;;;;;;;17.92;50.72;97023.13;6919132;28;20610;-86
2024/03/29 10:55:51;;;;;;;4.10;2.20;;;;;;;18.18;49.51;97032.56;6917600;28;20717;-83
2024/03/29 10:59:19;;;;;;;2.50;2.30;;;;;;;18.11;48.52;97025.84;6917255;28;20306;-82
2024/03/29 11:02:48;;;;;;;1.63;1.53;;;;;;;17.59;48.25;97007.78;6894501;28;20201;-81
2024/03/29 11:06:13;;;;;;;1.97;1.87;;;;;;;18.09;48.49;97009.78;6892471;28;20223;-82
2024/03/29 11:09:37;;;;;;;1.67;1.57;;;;;;;18.09;46.74;97003.50;6898296;28;20235;-81
2024/03/29 11:13:04;;;;;;;1.40;1.30;;;;;;;17.69;47.17;97004.13;6892651;28;20367;-80
2024/03/29 11:16:26;;;;;;;1.60;1.50;;;;;;;16.79;49.72;96997.00;6891540;28;20208;-80
2024/03/29 11:19:47;;;;;;;1.70;1.60;;;;;;;16.27;51.17;96962.38;6912304;28;20258;-80
2024/03/29 11:23:10;;;;;;;1.90;1.80;;;;;;;17.20;49.59;96990.00;6919633;28;20815;-80
2024/03/29 11:26:34;;;;;;;1.70;1.60;;;;;;;17.75;49.01;96992.03;6918514;28;20232;-80
2024/03/29 11:29:55;;;;;;;2.00;1.70;;;;;;;17.49;49.35;96988.03;6923151;28;20243;-80
2024/03/29 11:33:33;;;;;;;1.70;1.60;;;;;;;16.86;50.31;96995.56;6923313;28;20399;-81
2024/03/29 11:36:55;;;;;;;2.37;1.80;;;;;;;17.17;49.80;96987.88;6899960;28;20249;-80
2024/03/29 11:40:17;;;;;;;1.70;1.60;;;;;;;16.83;49.35;96987.16;6903225;28;20289;-80
2024/03/29 11:43:40;;;;;;;1.70;1.60;;;;;;;16.16;50.35;96990.75;6909509;28;20763;-80
2024/03/29 11:47:06;;;;;;;1.90;1.80;;;;;;;16.00;52.55;96974.84;6907750;28;20324;-81
2024/03/29 11:50:27;;;;;;;2.13;1.90;;;;;;;16.00;50.92;96985.72;6908691;28;20200;-81
2024/03/29 11:53:50;;;;;;;1.70;1.60;;;;;;;15.95;53.01;96983.84;6898914;28;20255;-81
2024/03/29 11:57:12;;;;;;;1.90;1.80;;;;;;;15.81;51.94;97003.78;6905218;28;20299;-81
2024/03/29 12:00:35;;;;;;;1.90;1.80;;;;;;;16.34;51.50;97006.34;6897913;28;20304;-82
2024/03/29 12:03:56;;;;;;;2.40;1.70;;;;;;;16.53;51.87;97001.91;6898546;28;20235;-81
2024/03/29 12:07:18;;;;;;;1.47;1.47;;;;;;;16.70;50.86;97015.06;6907623;28;20303;-81
2024/03/29 12:10:40;;;;;;;2.53;1.83;;;;;;;16.33;51.39;97020.28;6900359;28;20218;-81
2024/03/29 12:14:01;;;;;;;2.77;2.00;;;;;;;17.32;50.26;97023.91;6897820;28;20216;-82
2024/03/29 12:17:24;;;;;;;2.17;1.97;;;;;;;18.05;48.25;97032.50;6889217;28;20232;-83
2024/03/29 12:20:49;;;;;;;2.00;1.90;;;;;;;17.97;47.56;97027.69;6907218;28;20211;-83
2024/03/29 12:24:10;;;;;;;2.20;1.93;;;;;;;18.46;46.33;97017.94;6896492;28;20273;-81
2024/03/29 12:27:32;;;;;;;1.97;1.87;;;;;;;19.33;44.79;97011.44;6896884;28;20270;-81
2024/03/29 12:30:54;;;;;;;3.10;1.97;;;;;;;19.65;45.30;97003.13;6894708;28;20696;-82
2024/03/29 12:34:23;;;;;;;1.90;1.80;;;;;;;19.58;45.15;96985.53;6906398;28;20216;-82
2024/03/29 12:37:51;;;;;;;2.10;1.90;;;;;;;20.22;43.37;96991.44;6886032;28;20239;-82
2024/03/29 12:41:13;;;;;;;1.90;1.77;;;;;;;19.91;44.72;96986.94;6887206;28;20231;-82
2024/03/29 12:44:34;;;;;;;2.07;1.97;;;;;;;20.07;43.96;96991.00;6896157;28;20234;-83
2024/03/29 12:47:56;;;;;;;1.70;1.60;;;;;;;19.86;44.23;96982.41;6910171;28;20231;-85
2024/03/29 12:51:20;;;;;;;2.47;1.77;;;;;;;19.26;45.76;96991.09;6898186;28;20348;-83
2024/03/29 12:54:42;;;;;;;1.90;1.80;;;;;;;20.22;44.15;96990.66;6904064;28;20240;-82
2024/03/29 12:58:04;;;;;;;2.07;1.90;;;;;;;19.42;45.80;97001.44;6897474;28;20366;-82
2024/03/29 13:01:26;;;;;;;1.90;1.80;;;;;;;20.22;44.35;97009.81;6894412;28;20204;-82
2024/03/29 13:04:47;;;;;;;1.93;1.80;;;;;;;20.66;43.25;97007.06;6920342;28;20217;-82
2024/03/29 13:08:21;;;;;;;1.97;1.80;;;;;;;20.48;42.91;96981.50;6922198;28;20239;-83
2024/03/29 13:11:42;;;;;;;2.23;1.77;;;;;;;20.25;43.37;96999.03;6912924;28;20262;-82
2024/03/29 13:15:05;;;;;;;1.70;1.60;;;;;;;19.95;43.19;96998.91;6905063;28;20290;-83
2024/03/29 13:18:42;;;;;;;1.50;1.40;;;;;;;20.19;43.41;97004.94;6904792;28;20229;-82
2024/03/29 13:22:06;;;;;;;2.00;1.80;;;;;;;20.79;42.15;97006.97;6924461;28;20245;-82
2024/03/29 13:25:29;;;;;;;1.90;1.57;;;;;;;21.19;41.87;96981.28;6901557;28;20200;-82
2024/03/29 13:28:50;;;;;;;1.67;1.40;;;;;;;21.30;40.93;96980.66;6926342;28;20234;-84
2024/03/29 13:32:12;;;;;;;1.60;1.50;;;;;;;20.26;42.26;96997.91;6934250;28;20212;-81
2024/03/29 13:35:34;;;;;;;1.50;1.40;;;;;;;21.19;41.45;96995.75;6921717;28;20278;-84
2024/03/29 13:38:56;;;;;;;1.70;1.60;;;;;;;20.67;40.53;97005.94;6913196;28;20252;-82
2024/03/29 13:42:19;;;;;;;1.33;1.33;;;;;;;21.27;40.54;96991.44;6898797;28;20212;-80
2024/03/29 13:45:40;;;;;;;1.70;1.60;;;;;;;20.27;41.61;96974.09;6893024;28;20237;-82
2024/03/29 13:49:03;;;;;;;1.53;1.40;;;;;;;20.45;41.86;96984.06;6892716;28;20231;-82
2024/03/29 13:52:24;;;;;;;1.37;1.33;;;;;;;20.44;41.08;96983.22;6893250;28;20227;-82
2024/03/29 13:55:52;;;;;;;1.77;1.67;;;;;;;20.92;39.88;96967.75;6913899;28;20220;-82
2024/03/29 13:59:17;;;;;;;1.63;1.53;;;;;;;21.32;39.97;96941.97;6919620;28;20216;-82
2024/03/29 14:06:22;;;;;;;1.70;1.60;;;;;;;20.86;39.93;97004.59;6897648;28;20270;-80
2024/03/29 14:09:44;;;;;;;1.73;1.63;;;;;;;21.63;40.09;96995.59;6897181;28;20353;-81
2024/03/29 14:13:06;;;;;;;1.83;1.73;;;;;;;21.37;40.10;96974.72;6892237;28;20248;-81
2024/03/29 14:16:29;;;;;;;3.03;1.60;;;;;;;19.99;41.66;96984.28;6890818;28;20225;-80
2024/03/29 14:19:51;;;;;;;1.83;1.60;;;;;;;21.13;39.11;96968.84;6908096;28;20306;-81
2024/03/29 14:23:15;;;;;;;1.60;1.50;;;;;;;20.38;40.27;96961.75;6893339;28;20248;-81
2024/03/29 14:26:36;;;;;;;1.90;1.80;;;;;;;21.09;39.43;96970.56;6902743;28;20250;-81
2024/03/29 14:29:59;;;;;;;2.37;1.67;;;;;;;21.54;37.83;96956.38;6916334;28;20221;-80
2024/03/29 14:33:21;;;;;;;1.60;1.50;;;;;;;21.55;38.88;96966.19;6896987;28;20204;-80
2024/03/29 14:36:43;;;;;;;1.60;1.50;;;;;;;20.84;40.29;96969.28;6892828;28;20234;-81
2024/03/29 14:40:05;;;;;;;1.60;1.50;;;;;;;22.04;38.69;96962.25;6892184;28;20313;-84
2024/03/29 14:43:27;;;;;;;1.60;1.50;;;;;;;21.74;35.68;96952.25;6912106;28;20672;-84
2024/03/29 14:46:49;;;;;;;1.50;1.40;;;;;;;21.17;36.27;96949.81;6904363;28;20284;-83
2024/03/29 14:50:12;;;;;;;1.60;1.50;;;;;;;21.25;36.71;96945.16;6900756;28;20703;-81
2024/03/29 14:53:33;;;;;;;2.07;1.40;;;;;;;21.60;35.28;96941.38;6892573;28;20818;-82
2024/03/29 14:56:55;;;;;;;1.37;1.30;;;;;;;20.58;37.31;96925.66;6897162;28;20303;-84
2024/03/29 15:00:17;;;;;;;1.80;1.70;;;;;;;21.07;35.81;96942.69;6908274;28;20292;-81
2024/03/29 15:03:39;;;;;;;1.60;1.27;;;;;;;21.41;36.42;96924.41;6908839;28;20218;-81
2024/03/29 15:07:03;;;;;;;3.90;1.50;;;;;;;21.66;34.56;96922.84;6917187;28;20290;-82
2024/03/29 15:10:25;;;;;;;2.27;1.37;;;;;;;21.43;35.02;96922.13;6906653;28;20210;-80
2024/03/29 15:13:47;;;;;;;1.87;1.73;;;;;;;21.32;35.44;96922.78;6909412;28;20215;-83
2024/03/29 15:17:08;;;;;;;1.50;1.40;;;;;;;21.57;35.70;96916.53;6907529;28;20330;-80
2024/03/29 15:20:30;;;;;;;1.70;1.60;;;;;;;22.24;34.24;96901.25;6895829;28;20737;-82
2024/03/29 15:23:54;;;;;;;1.60;1.50;;;;;;;22.13;34.48;96911.72;6896121;28;20242;-81
2024/03/29 15:27:26;;;;;;;2.10;1.53;;;;;;;21.88;33.50;96884.28;6897115;28;20313;-83
2024/03/29 15:30:53;;;;;;;1.40;1.30;;;;;;;21.64;34.59;96894.91;6895105;28;20353;-84
2024/03/29 15:34:14;;;;;;;1.40;1.30;;;;;;;22.53;32.80;96879.41;6892783;28;20193;-83
2024/03/29 15:37:36;;;;;;;1.70;1.20;;;;;;;22.21;32.99;96890.91;6893797;28;20283;-84
2024/03/29 15:41:00;;;;;;;2.77;1.33;;;;;;;21.53;34.12;96896.38;6901936;28;20225;-84
2024/03/29 15:44:22;;;;;;;1.60;1.50;;;;;;;21.77;34.05;96891.25;6893234;28;20297;-84
2024/03/29 15:47:43;;;;;;;1.63;1.53;;;;;;;22.15;33.51;96895.75;6907917;28;20326;-83
2024/03/29 15:51:05;;;;;;;2.07;1.60;;;;;;;21.76;33.82;96912.38;6903581;28;20342;-84
2024/03/29 15:54:27;;;;;;;1.87;1.37;;;;;;;22.13;33.97;96921.91;6900578;28;20317;-82
2024/03/29 15:57:49;;;;;;;1.60;1.50;;;;;;;21.92;34.18;96921.75;6897196;28;20641;-83
2024/03/29 16:01:12;;;;;;;1.67;1.50;;;;;;;22.31;33.84;96918.00;6898070;28;20343;-83
2024/03/29 16:04:34;;;;;;;2.63;1.70;;;;;;;22.27;34.38;96912.38;6907075;28;20233;-81
2024/03/29 16:07:55;;;;;;;1.60;1.50;;;;;;;22.12;33.49;96907.38;6913129;28;20255;-82
2024/03/29 16:11:20;;;;;;;1.50;1.40;;;;;;;22.17;34.72;96912.69;6907569;28;20308;-81
2024/03/29 16:14:42;;;;;;;1.23;1.17;;;;;;;21.65;34.96;96919.28;6912105;28;20208;-81
2024/03/29 16:18:04;;;;;;;1.83;1.50;;;;;;;21.83;35.32;96915.44;6913713;28;20275;-82
2024/03/29 16:21:25;;;;;;;1.40;1.30;;;;;;;21.10;35.53;96919.34;6901471;28;20284;-82
2024/03/29 16:24:47;;;;;;;1.63;1.53;;;;;;;20.89;37.01;96915.53;6908555;28;20294;-82
2024/03/29 16:28:10;;;;;;;1.50;1.40;;;;;;;19.97;38.01;96898.19;6915743;28;20239;-81
2024/03/29 16:31:32;;;;;;;1.40;1.30;;;;;;;20.15;37.91;96911.72;6899349;28;20211;-81
2024/03/29 16:34:53;;;;;;;1.67;1.57;;;;;;;20.20;37.89;96913.50;6906468;28;20235;-82
2024/03/29 16:38:15;;;;;;;1.70;1.60;;;;;;;19.84;38.55;96886.19;6901131;28;20393;-82
2024/03/29 16:41:36;;;;;;;1.63;1.37;;;;;;;19.87;38.71;96901.97;6897127;28;20237;-82
2024/03/29 16:44:57;;;;;;;3.40;2.50;;;;;;;19.49;39.66;96905.34;6894238;28;20208;-80
2024/03/29 16:48:20;;;;;;;5.87;3.00;;;;;;;19.90;39.55;96898.63;6894249;28;21090;-80
2024/03/29 16:51:41;;;;;;;2.57;1.90;;;;;;;20.08;39.09;96902.31;6898638;28;20758;-80
2024/03/29 16:55:03;;;;;;;2.03;1.77;;;;;;;19.79;39.91;96900.00;6886844;28;20359;-80
2024/03/29 16:58:27;;;;;;;2.20;1.70;;;;;;;19.75;40.44;96892.72;6894477;28;20724;-80
2024/03/29 17:01:48;;;;;;;2.10;1.90;;;;;;;20.40;38.92;96902.06;6905442;28;20216;-80
2024/03/29 17:05:10;;;;;;;5.13;1.33;;;;;;;19.70;40.32;96898.31;6894703;28;20382;-80
2024/03/29 17:08:32;;;;;;;1.60;1.50;;;;;;;20.55;38.97;96907.13;6903314;28;20327;-80
2024/03/29 17:11:52;;;;;;;3.27;1.57;;;;;;;20.40;39.28;96902.06;6894423;28;20218;-80
2024/03/29 17:15:14;;;;;;;1.37;1.30;;;;;;;20.47;38.99;96902.41;6899999;28;20234;-82
2024/03/29 17:18:35;;;;;;;7.07;6.37;;;;;;;20.72;39.01;96894.34;6898125;28;20237;-83
2024/03/29 17:21:57;;;;;;;3.40;3.10;;;;;;;20.71;39.26;96906.41;6902884;28;20291;-82
2024/03/29 17:25:19;;;;;;;1.97;1.83;;;;;;;20.68;39.35;96901.56;6903826;28;20559;-82
2024/03/29 17:28:40;;;;;;;1.93;1.80;;;;;;;19.61;41.25;96892.75;6907426;28;20371;-82
2024/03/29 17:32:02;;;;;;;1.80;1.70;;;;;;;20.44;40.09;96873.72;6903840;28;20658;-82
2024/03/29 17:35:23;;;;;;;1.57;1.47;;;;;;;20.49;39.72;96872.78;6889832;28;20217;-81
2024/03/29 17:38:46;;;;;;;1.90;1.70;;;;;;;19.83;41.88;96889.22;6900864;28;20279;-82
2024/03/29 17:42:07;;;;;;;3.23;2.30;;;;;;;19.82;41.89;96879.41;6911683;28;20205;-82
2024/03/29 17:45:28;;;;;;;2.70;2.23;;;;;;;20.10;40.97;96887.22;6906932;28;20289;-82
2024/03/29 17:48:49;;;;;;;2.20;2.00;;;;;;;20.26;40.70;96882.97;6913622;28;20274;-83